Terminal Aerodrome Forecast
Issued by NWS

Home | Current Version | Previous Version | Text Only | Print | Product List | Glossary On
Versions: 1 2 3 4 5 6 7 8 9 10 11 12 13 14 15 16 17 18
000
FTUS43 KAPX 011134
TAFPLN
TAF
KPLN 011134Z 0112/0212 20004KT P6SM SCT035 OVC100 WS015/21025KT
     FM011500 24010KT P6SM SCT035 OVC080
     FM020200 26008G16KT P6SM SCT025 BKN035
     FM021000 29008G16KT P6SM SCT035=

USA.gov is the U.S. government's official web portal to all federal, state and local government web resources and services.